Time;durP1;ratioP1;P1;durP2;ratioP2;P2;SDS_P1;SDS_P2;PMS_P1;PMS_P2;Temp;Humidity;BMP_temperature;BMP_pressure;BME280_temperature;BME280_humidity;BME280_pressure;Samples;Min_cycle;Max_cycle;Signal;HPM_P1;HPM_P2
2021/01/23 00:00:28;;;;;;;19.45;2.70;;;;;;;;;;5132352;27;20043;-80
2021/01/23 00:03:32;;;;;;;15.88;2.55;;;;;;;;;;5119478;27;20050;-80
2021/01/23 00:06:37;;;;;;;17.45;2.88;;;;;;;;;;5132431;27;20040;-80
2021/01/23 00:09:41;;;;;;;14.13;3.28;;;;;;;;;;5132047;27;20043;-79
2021/01/23 00:12:46;;;;;;;22.45;3.08;;;;;;;;;;5119588;28;20382;-81
2021/01/23 00:15:50;;;;;;;21.55;3.00;;;;;;;;;;5132305;28;20051;-79
2021/01/23 00:18:54;;;;;;;21.52;3.55;;;;;;;;;;5132398;28;20035;-79
2021/01/23 00:21:59;;;;;;;17.25;3.63;;;;;;;;;;5132080;28;20425;-79
2021/01/23 00:25:04;;;;;;;24.35;3.45;;;;;;;;;;5132095;28;20043;-79
2021/01/23 00:28:08;;;;;;;21.50;3.50;;;;;;;;;;5132296;28;20065;-79
2021/01/23 00:31:13;;;;;;;18.08;3.53;;;;;;;;;;5132018;28;20035;-79
2021/01/23 00:34:18;;;;;;;28.92;4.07;;;;;;;;;;5131924;28;20043;-78
2021/01/23 00:37:22;;;;;;;28.80;3.25;;;;;;;;;;5132221;28;20035;-79
2021/01/23 00:40:26;;;;;;;20.25;3.10;;;;;;;;;;5131866;28;20394;-79
2021/01/23 00:43:30;;;;;;;19.92;3.15;;;;;;;;;;5131949;28;20039;-80
2021/01/23 00:46:35;;;;;;;23.67;3.47;;;;;;;;;;5119696;28;20040;-79
2021/01/23 00:49:39;;;;;;;21.23;3.75;;;;;;;;;;5132297;28;20050;-79
2021/01/23 00:52:43;;;;;;;21.35;4.38;;;;;;;;;;5132172;28;20054;-80
2021/01/23 00:55:48;;;;;;;27.17;3.97;;;;;;;;;;5131968;28;20543;-79
2021/01/23 00:58:52;;;;;;;22.63;4.47;;;;;;;;;;5132261;28;20036;-80
2021/01/23 01:01:57;;;;;;;24.23;3.78;;;;;;;;;;5131994;28;20113;-79
2021/01/23 01:05:15;;;;;;;21.65;3.70;;;;;;;;;;5118934;28;20046;-78
2021/01/23 01:08:19;;;;;;;23.30;3.65;;;;;;;;;;5131982;28;20051;-77
2021/01/23 01:11:23;;;;;;;28.48;3.78;;;;;;;;;;5134386;27;20043;-80
2021/01/23 01:14:28;;;;;;;20.17;3.67;;;;;;;;;;5135422;27;20050;-79
2021/01/23 01:17:32;;;;;;;22.63;3.38;;;;;;;;;;5123507;27;20046;-80
2021/01/23 01:20:39;;;;;;;28.48;3.67;;;;;;;;;;5123225;27;20521;-78
2021/01/23 01:23:44;;;;;;;30.23;3.55;;;;;;;;;;5135156;27;20039;-79
2021/01/23 01:26:48;;;;;;;24.48;4.03;;;;;;;;;;5135471;27;20024;-79
2021/01/23 01:29:52;;;;;;;30.48;4.20;;;;;;;;;;5134999;27;20031;-78
2021/01/23 01:32:56;;;;;;;32.38;3.47;;;;;;;;;;5122331;27;20042;-79
2021/01/23 01:36:01;;;;;;;19.70;4.13;;;;;;;;;;5135051;27;20038;-78
2021/01/23 01:39:05;;;;;;;28.05;5.05;;;;;;;;;;5134737;27;20042;-79
2021/01/23 01:42:09;;;;;;;31.38;4.13;;;;;;;;;;5134941;27;20039;-80
2021/01/23 01:45:16;;;;;;;24.55;4.00;;;;;;;;;;5134473;27;20039;-79
2021/01/23 01:48:20;;;;;;;28.17;3.70;;;;;;;;;;5134813;27;20035;-80
2021/01/23 01:51:24;;;;;;;27.02;4.68;;;;;;;;;;5121764;27;20493;-78
2021/01/23 01:54:30;;;;;;;26.13;4.43;;;;;;;;;;5134595;27;20057;-79
2021/01/23 01:57:34;;;;;;;34.20;5.57;;;;;;;;;;5134747;27;20047;-79
2021/01/23 02:00:38;;;;;;;33.70;6.10;;;;;;;;;;5134362;27;20428;-79
2021/01/23 02:03:55;;;;;;;34.10;4.97;;;;;;;;;;5134251;27;20055;-78
2021/01/23 02:07:18;;;;;;;37.17;5.40;;;;;;;;;;5134697;27;20042;-78
2021/01/23 02:10:27;;;;;;;35.20;4.75;;;;;;;;;;5134098;27;20655;-79
2021/01/23 02:13:32;;;;;;;23.17;4.53;;;;;;;;;;5134350;27;20031;-78
2021/01/23 02:16:44;;;;;;;33.35;6.03;;;;;;;;;;5121416;27;20511;-79
2021/01/23 02:19:51;;;;;;;33.63;5.30;;;;;;;;;;5134139;27;20039;-79
2021/01/23 02:23:09;;;;;;;33.25;4.97;;;;;;;;;;5121118;27;20047;-79
2021/01/23 02:26:33;;;;;;;38.30;5.15;;;;;;;;;;5134204;27;20058;-79
2021/01/23 02:29:44;;;;;;;28.13;4.78;;;;;;;;;;5133965;27;20038;-78
2021/01/23 02:32:48;;;;;;;;;;;;;;;;;;5134483;27;20038;-79
2021/01/23 02:35:53;;;;;;;37.17;5.88;;;;;;;;;;5133827;27;19915;-79
2021/01/23 02:38:58;;;;;;;38.42;5.07;;;;;;;;;;5133690;27;20056;-79
2021/01/23 02:42:03;;;;;;;42.88;5.85;;;;;;;;;;5120801;27;20035;-79
2021/01/23 02:45:08;;;;;;;37.63;5.30;;;;;;;;;;5133871;27;20043;-79
2021/01/23 02:48:12;;;;;;;34.58;5.32;;;;;;;;;;5133682;27;20039;-78
2021/01/23 02:51:35;;;;;;;39.08;5.85;;;;;;;;;;5133602;27;20382;-78
2021/01/23 02:54:42;;;;;;;46.13;6.03;;;;;;;;;;5121034;27;20386;-79
2021/01/23 02:57:48;;;;;;;47.40;6.68;;;;;;;;;;5133493;27;20478;-79
2021/01/23 03:00:53;;;;;;;43.47;6.85;;;;;;;;;;5133209;27;20046;-79
2021/01/23 03:03:58;;;;;;;42.60;6.18;;;;;;;;;;5132999;27;20051;-78
2021/01/23 03:07:02;;;;;;;38.70;6.20;;;;;;;;;;5133297;27;20507;-79
2021/01/23 03:10:10;;;;;;;52.00;7.88;;;;;;;;;;5133005;27;20039;-79
2021/01/23 03:13:17;;;;;;;47.17;6.50;;;;;;;;;;5132836;27;20519;-79
2021/01/23 03:16:21;;;;;;;39.80;5.65;;;;;;;;;;5133247;27;20035;-78
2021/01/23 03:19:26;;;;;;;45.35;6.13;;;;;;;;;;5133226;27;20035;-78
2021/01/23 03:22:30;;;;;;;42.38;6.40;;;;;;;;;;5132975;27;20049;-79
2021/01/23 03:25:34;;;;;;;30.45;5.53;;;;;;;;;;5132823;27;20533;-79
2021/01/23 03:28:38;;;;;;;39.50;5.70;;;;;;;;;;5133049;27;20039;-79
2021/01/23 03:31:43;;;;;;;36.67;5.10;;;;;;;;;;5132950;27;20027;-78
2021/01/23 03:34:48;;;;;;;40.05;4.97;;;;;;;;;;5132230;27;20027;-79
2021/01/23 03:37:52;;;;;;;35.72;6.32;;;;;;;;;;5133004;27;20046;-78
2021/01/23 03:40:57;;;;;;;39.75;6.55;;;;;;;;;;5132703;27;20036;-78
2021/01/23 03:44:02;;;;;;;35.92;6.60;;;;;;;;;;5132230;27;20047;-79
2021/01/23 03:47:07;;;;;;;32.30;5.65;;;;;;;;;;5132762;27;20043;-78
2021/01/23 03:50:12;;;;;;;41.78;6.10;;;;;;;;;;5132965;27;20039;-78
2021/01/23 03:53:16;;;;;;;40.42;6.15;;;;;;;;;;5119786;27;20035;-79
2021/01/23 03:56:20;;;;;;;38.90;5.47;;;;;;;;;;5132693;27;20054;-78
2021/01/23 03:59:25;;;;;;;37.03;5.68;;;;;;;;;;5133692;27;20051;-78
2021/01/23 04:02:29;;;;;;;44.65;6.40;;;;;;;;;;5132287;27;20388;-79
2021/01/23 04:05:33;;;;;;;41.75;7.03;;;;;;;;;;5132328;28;20043;-79
2021/01/23 04:08:37;;;;;;;52.10;7.65;;;;;;;;;;5132601;27;20505;-79
2021/01/23 04:11:42;;;;;;;43.72;7.03;;;;;;;;;;5132964;27;20046;-79
2021/01/23 04:14:46;;;;;;;33.97;5.80;;;;;;;;;;5132445;28;20038;-80
2021/01/23 04:17:54;;;;;;;19.35;2.63;;;;;;;;;;5132831;28;20047;-77
2021/01/23 04:20:58;;;;;;;25.40;4.90;;;;;;;;;;5132700;28;20039;-77
2021/01/23 04:24:02;;;;;;;24.00;3.83;;;;;;;;;;5131966;28;20495;-77
2021/01/23 04:27:10;;;;;;;27.85;3.95;;;;;;;;;;5119861;28;20518;-77
2021/01/23 04:30:15;;;;;;;21.25;3.05;;;;;;;;;;5132348;28;20038;-78
2021/01/23 04:33:19;;;;;;;23.67;3.45;;;;;;;;;;5132037;28;20359;-77
2021/01/23 04:36:23;;;;;;;21.75;3.67;;;;;;;;;;5132044;28;20039;-78
2021/01/23 04:39:27;;;;;;;21.20;3.17;;;;;;;;;;5132294;28;20035;-78
2021/01/23 04:42:32;;;;;;;27.80;3.50;;;;;;;;;;5132290;28;20031;-78
2021/01/23 04:45:36;;;;;;;23.42;3.58;;;;;;;;;;5135066;27;20502;-78
2021/01/23 04:48:41;;;;;;;29.60;3.63;;;;;;;;;;5136201;27;20042;-77
2021/01/23 04:51:45;;;;;;;21.48;3.63;;;;;;;;;;5136219;27;20387;-77
2021/01/23 04:54:49;;;;;;;22.48;3.70;;;;;;;;;;5123143;27;20032;-77
2021/01/23 04:57:56;;;;;;;26.50;4.07;;;;;;;;;;5135880;27;20386;-77
2021/01/23 05:01:01;;;;;;;23.25;3.60;;;;;;;;;;5135691;27;20360;-77
2021/01/23 05:04:05;;;;;;;22.40;3.80;;;;;;;;;;5135567;27;20066;-77
2021/01/23 05:07:10;;;;;;;21.80;5.90;;;;;;;;;;5111298;27;20493;-77
2021/01/23 05:10:18;;;;;;;27.58;5.50;;;;;;;;;;5135455;27;20054;-77
2021/01/23 05:13:22;;;;;;;25.90;5.95;;;;;;;;;;5135705;27;20063;-78
2021/01/23 05:16:30;;;;;;;31.17;4.03;;;;;;;;;;5135354;27;20598;-78
2021/01/23 05:19:41;;;;;;;25.85;3.53;;;;;;;;;;5135458;27;20032;-77
2021/01/23 05:22:48;;;;;;;28.70;3.53;;;;;;;;;;5135052;27;20058;-77
2021/01/23 05:25:56;;;;;;;19.98;3.60;;;;;;;;;;5135547;27;20051;-78
2021/01/23 05:29:14;;;;;;;19.92;3.80;;;;;;;;;;5135076;27;20051;-77
2021/01/23 05:32:18;;;;;;;26.45;3.83;;;;;;;;;;5135351;27;20039;-78
2021/01/23 05:35:22;;;;;;;24.85;3.58;;;;;;;;;;5135330;27;20092;-78
2021/01/23 05:38:29;;;;;;;24.55;3.58;;;;;;;;;;5122428;27;20039;-78
2021/01/23 05:41:33;;;;;;;26.33;4.75;;;;;;;;;;5135189;27;20046;-78
2021/01/23 05:44:38;;;;;;;26.48;4.90;;;;;;;;;;5134737;27;20050;-78
2021/01/23 05:47:42;;;;;;;23.10;3.55;;;;;;;;;;5134756;27;20494;-78
2021/01/23 05:50:46;;;;;;;17.67;3.92;;;;;;;;;;5134665;27;20050;-78
2021/01/23 05:53:51;;;;;;;17.75;3.97;;;;;;;;;;5134514;27;20190;-78
2021/01/23 05:56:56;;;;;;;17.50;4.18;;;;;;;;;;5133995;27;20050;-78
2021/01/23 06:00:00;;;;;;;31.02;5.50;;;;;;;;;;5121983;27;20048;-78
2021/01/23 06:03:05;;;;;;;20.33;5.30;;;;;;;;;;5134208;27;20031;-78
2021/01/23 06:06:10;;;;;;;22.98;5.28;;;;;;;;;;5134763;27;20043;-77
2021/01/23 06:09:53;;;;;;;24.92;4.47;;;;;;;;;;5134584;27;20040;-77
2021/01/23 06:12:57;;;;;;;23.83;4.70;;;;;;;;;;5031206;28;20041;-77
2021/01/23 06:16:01;;;;;;;23.95;3.83;;;;;;;;;;5030918;28;20033;-77
2021/01/23 06:19:06;;;;;;;26.95;4.53;;;;;;;;;;5121508;27;20034;-77
2021/01/23 06:22:11;;;;;;;24.85;6.80;;;;;;;;;;5134476;27;20043;-77
2021/01/23 06:25:15;;;;;;;25.48;6.65;;;;;;;;;;5133767;27;20050;-77
2021/01/23 06:28:23;;;;;;;24.08;6.38;;;;;;;;;;5134125;27;20035;-77
2021/01/23 06:31:31;;;;;;;22.00;5.10;;;;;;;;;;5133916;27;20039;-77
2021/01/23 06:34:44;;;;;;;23.30;5.72;;;;;;;;;;5134053;27;20183;-77
2021/01/23 06:37:48;;;;;;;21.45;5.13;;;;;;;;;;5133951;27;20407;-78
2021/01/23 06:40:52;;;;;;;20.40;4.60;;;;;;;;;;5133628;27;20046;-78
2021/01/23 06:44:12;;;;;;;21.98;5.28;;;;;;;;;;5133596;27;20411;-77
2021/01/23 06:47:16;;;;;;;22.92;6.40;;;;;;;;;;5133678;27;20035;-77
2021/01/23 06:50:33;;;;;;;30.85;6.88;;;;;;;;;;5133217;27;20046;-77
2021/01/23 06:53:37;;;;;;;36.30;7.60;;;;;;;;;;5133282;27;20035;-77
2021/01/23 06:56:42;;;;;;;32.65;10.38;;;;;;;;;;5133430;27;20032;-77
2021/01/23 06:59:48;;;;;;;33.92;10.05;;;;;;;;;;5133213;27;20034;-73
2021/01/23 07:02:52;;;;;;;35.47;13.68;;;;;;;;;;5133202;27;20042;-72
2021/01/23 07:05:59;;;;;;;33.40;13.20;;;;;;;;;;5133354;27;20513;-72
2021/01/23 07:09:04;;;;;;;48.55;12.98;;;;;;;;;;5133121;27;20042;-72
2021/01/23 07:12:08;;;;;;;50.03;19.65;;;;;;;;;;5132941;27;20054;-72
2021/01/23 07:15:28;;;;;;;43.95;20.25;;;;;;;;;;5133215;27;20034;-77
2021/01/23 07:18:32;;;;;;;43.70;21.08;;;;;;;;;;5120429;27;20599;-72
2021/01/23 07:21:39;;;;;;;26.00;8.68;;;;;;;;;;5120246;27;20042;-73
2021/01/23 07:24:45;;;;;;;31.80;7.40;;;;;;;;;;5131190;27;20047;-73
2021/01/23 07:27:49;;;;;;;25.92;7.20;;;;;;;;;;5132749;27;20038;-75
2021/01/23 07:30:54;;;;;;;27.73;8.88;;;;;;;;;;5132600;27;20364;-73
2021/01/23 07:33:59;;;;;;;28.15;8.13;;;;;;;;;;5132189;27;20052;-72
2021/01/23 07:37:03;;;;;;;20.55;7.20;;;;;;;;;;5120101;27;20043;-70
2021/01/23 07:40:08;;;;;;;31.90;8.32;;;;;;;;;;5131529;27;20039;-70
2021/01/23 07:43:13;;;;;;;28.23;7.32;;;;;;;;;;5132597;27;20031;-71
2021/01/23 07:46:17;;;;;;;28.25;8.30;;;;;;;;;;5132618;27;20374;-71
2021/01/23 07:49:28;;;;;;;21.88;9.27;;;;;;;;;;5132372;27;20036;-73
2021/01/23 07:52:33;;;;;;;35.03;9.90;;;;;;;;;;5132002;27;20394;-71
2021/01/23 07:55:38;;;;;;;31.95;10.30;;;;;;;;;;5130645;27;20283;-71
2021/01/23 07:58:48;;;;;;;31.45;9.68;;;;;;;;;;5132359;27;20042;-72
2021/01/23 08:02:02;;;;;;;26.13;9.95;;;;;;;;;;5132300;27;20050;-73
2021/01/23 08:05:07;;;;;;;23.10;8.13;;;;;;;;;;5132089;27;20043;-72
2021/01/23 08:08:12;;;;;;;23.95;8.82;;;;;;;;;;5131995;27;20036;-72
2021/01/23 08:11:38;;;;;;;24.13;9.63;;;;;;;;;;5131720;27;20051;-73
2021/01/23 08:14:55;;;;;;;36.20;10.27;;;;;;;;;;5131930;27;20043;-72
2021/01/23 08:18:00;;;;;;;29.70;9.95;;;;;;;;;;5131851;28;20137;-71
2021/01/23 08:21:20;;;;;;;27.10;10.13;;;;;;;;;;5131995;28;20485;-73
2021/01/23 08:24:28;;;;;;;38.63;15.88;;;;;;;;;;5131686;28;20505;-74
2021/01/23 08:27:33;;;;;;;32.83;12.90;;;;;;;;;;5132263;28;20042;-74
2021/01/23 08:30:38;;;;;;;35.42;12.32;;;;;;;;;;5131817;28;20042;-71
2021/01/23 08:33:43;;;;;;;32.40;12.13;;;;;;;;;;5131925;28;20042;-71
2021/01/23 08:36:47;;;;;;;53.35;19.85;;;;;;;;;;5131893;28;20382;-72
2021/01/23 08:39:52;;;;;;;43.13;14.55;;;;;;;;;;5131683;28;20038;-72
2021/01/23 08:42:58;;;;;;;41.78;12.93;;;;;;;;;;5131612;28;20038;-72
2021/01/23 08:46:03;;;;;;;32.45;11.38;;;;;;;;;;5131881;28;20054;-72
2021/01/23 08:49:07;;;;;;;17.73;6.38;;;;;;;;;;5131516;28;20031;-71
2021/01/23 08:52:11;;;;;;;16.48;4.40;;;;;;;;;;5131453;28;20502;-71
2021/01/23 08:55:15;;;;;;;23.52;7.32;;;;;;;;;;5131696;28;20038;-72
2021/01/23 08:58:20;;;;;;;78.45;41.80;;;;;;;;;;5131361;28;20040;-71
2021/01/23 09:01:24;;;;;;;31.30;6.70;;;;;;;;;;5131751;28;20046;-71
2021/01/23 09:04:29;;;;;;;14.73;3.15;;;;;;;;;;5131072;28;20027;-73
2021/01/23 09:07:33;;;;;;;20.98;3.50;;;;;;;;;;5131399;28;20042;-74
2021/01/23 09:10:38;;;;;;;19.85;3.35;;;;;;;;;;5131345;28;20046;-74
2021/01/23 09:13:42;;;;;;;23.65;3.35;;;;;;;;;;5118929;28;20043;-74
2021/01/23 09:16:46;;;;;;;15.65;2.97;;;;;;;;;;5131660;28;20035;-75
2021/01/23 09:19:51;;;;;;;17.63;3.22;;;;;;;;;;5131367;28;20043;-74
2021/01/23 09:22:55;;;;;;;28.25;3.63;;;;;;;;;;5131102;28;20039;-73
2021/01/23 09:26:03;;;;;;;21.75;2.90;;;;;;;;;;5131284;28;20054;-72
2021/01/23 09:29:07;;;;;;;17.25;3.00;;;;;;;;;;5106915;28;20035;-74
2021/01/23 09:32:11;;;;;;;19.48;3.83;;;;;;;;;;5133561;27;20499;-74
2021/01/23 09:35:16;;;;;;;16.13;3.00;;;;;;;;;;5135163;27;20031;-76
2021/01/23 09:38:20;;;;;;;13.80;3.75;;;;;;;;;;5134958;27;20047;-75
2021/01/23 09:41:27;;;;;;;15.23;2.85;;;;;;;;;;5134882;27;20038;-74
2021/01/23 09:44:31;;;;;;;10.70;2.80;;;;;;;;;;5134788;27;20058;-73
2021/01/23 09:47:36;;;;;;;11.20;2.70;;;;;;;;;;5134849;27;20042;-74
2021/01/23 09:50:40;;;;;;;11.05;2.72;;;;;;;;;;5122029;27;20054;-73
2021/01/23 09:53:44;;;;;;;13.30;2.72;;;;;;;;;;5134695;27;20047;-75
2021/01/23 09:56:48;;;;;;;19.15;3.58;;;;;;;;;;5134589;27;20043;-75
2021/01/23 09:59:53;;;;;;;12.15;2.60;;;;;;;;;;5134333;27;20367;-74
2021/01/23 10:02:59;;;;;;;20.98;3.08;;;;;;;;;;5134683;27;20042;-76
2021/01/23 10:06:04;;;;;;;12.60;2.95;;;;;;;;;;5134828;27;20130;-73
2021/01/23 10:09:08;;;;;;;13.13;3.08;;;;;;;;;;5134701;27;20031;-74
2021/01/23 10:12:12;;;;;;;14.30;3.15;;;;;;;;;;5134278;27;20047;-74
2021/01/23 10:15:17;;;;;;;16.17;2.97;;;;;;;;;;5134844;27;20505;-69
2021/01/23 10:18:21;;;;;;;16.52;3.60;;;;;;;;;;5134856;27;20046;-76
2021/01/23 10:21:25;;;;;;;17.65;3.45;;;;;;;;;;5110068;27;20050;-76
2021/01/23 10:24:30;;;;;;;18.20;2.83;;;;;;;;;;5133320;27;20047;-71
2021/01/23 10:27:35;;;;;;;16.00;3.58;;;;;;;;;;5133607;27;20387;-72
2021/01/23 10:30:39;;;;;;;14.07;2.60;;;;;;;;;;5133894;27;20494;-71
2021/01/23 10:33:44;;;;;;;16.23;4.05;;;;;;;;;;5133293;27;20421;-73
2021/01/23 10:36:49;;;;;;;14.10;3.20;;;;;;;;;;5133711;27;20046;-73
2021/01/23 10:39:53;;;;;;;11.55;2.88;;;;;;;;;;5133426;27;20044;-72
2021/01/23 10:42:57;;;;;;;16.35;3.83;;;;;;;;;;5133234;27;20039;-72
2021/01/23 10:46:03;;;;;;;9.98;2.40;;;;;;;;;;5133120;27;20051;-75
2021/01/23 10:49:07;;;;;;;15.73;3.55;;;;;;;;;;5133250;27;20031;-75
2021/01/23 10:52:11;;;;;;;11.18;2.83;;;;;;;;;;5132863;27;20042;-75
2021/01/23 10:55:16;;;;;;;23.40;3.10;;;;;;;;;;5133543;27;20038;-75
2021/01/23 10:58:20;;;;;;;23.40;3.05;;;;;;;;;;5132676;27;20031;-75
2021/01/23 11:01:24;;;;;;;15.98;3.25;;;;;;;;;;5133297;27;20031;-75
2021/01/23 11:04:29;;;;;;;14.98;3.70;;;;;;;;;;5133117;27;20054;-75
2021/01/23 11:07:33;;;;;;;18.60;3.05;;;;;;;;;;5132930;27;20027;-76
2021/01/23 11:10:38;;;;;;;17.90;3.30;;;;;;;;;;5132748;27;20411;-75
2021/01/23 11:13:43;;;;;;;16.20;3.65;;;;;;;;;;5132768;27;20035;-74
2021/01/23 11:16:48;;;;;;;21.55;4.57;;;;;;;;;;5133039;27;20035;-74
2021/01/23 11:19:53;;;;;;;19.08;4.50;;;;;;;;;;5133017;27;20043;-74
2021/01/23 11:22:58;;;;;;;24.80;4.30;;;;;;;;;;5132343;27;20031;-75
2021/01/23 11:26:02;;;;;;;26.52;3.65;;;;;;;;;;5132601;27;20051;-75
2021/01/23 11:29:06;;;;;;;16.60;3.65;;;;;;;;;;5132752;27;20493;-75
2021/01/23 11:32:10;;;;;;;28.33;3.72;;;;;;;;;;5134171;27;20043;-75
2021/01/23 11:35:14;;;;;;;23.88;3.53;;;;;;;;;;5133766;27;20031;-75
2021/01/23 11:38:19;;;;;;;18.60;3.70;;;;;;;;;;5132626;27;20042;-75
2021/01/23 11:41:24;;;;;;;23.38;4.57;;;;;;;;;;5132657;27;20031;-75
2021/01/23 11:44:28;;;;;;;27.60;5.25;;;;;;;;;;5132692;27;20047;-75
2021/01/23 11:47:32;;;;;;;33.25;4.88;;;;;;;;;;5132789;27;20035;-74
2021/01/23 11:50:38;;;;;;;23.50;4.95;;;;;;;;;;5132896;27;20493;-75
2021/01/23 11:53:42;;;;;;;19.13;3.60;;;;;;;;;;5132478;27;20035;-75
2021/01/23 11:56:47;;;;;;;25.02;4.85;;;;;;;;;;5119838;27;20501;-75
2021/01/23 11:59:51;;;;;;;22.67;4.15;;;;;;;;;;5132479;27;20042;-74
2021/01/23 12:02:55;;;;;;;22.88;3.90;;;;;;;;;;5119567;27;20047;-74
2021/01/23 12:06:00;;;;;;;23.95;3.97;;;;;;;;;;5132164;27;20509;-75
2021/01/23 12:09:04;;;;;;;23.27;3.22;;;;;;;;;;5132510;27;20031;-74
2021/01/23 12:12:08;;;;;;;16.52;3.40;;;;;;;;;;5132032;28;20608;-73
2021/01/23 12:15:16;;;;;;;19.25;3.08;;;;;;;;;;5132133;27;20050;-75
2021/01/23 12:18:21;;;;;;;21.40;4.05;;;;;;;;;;5119576;28;20047;-75
2021/01/23 12:21:25;;;;;;;18.80;4.53;;;;;;;;;;5131738;28;20502;-75
2021/01/23 12:24:32;;;;;;;23.85;3.58;;;;;;;;;;5132132;28;20043;-74
2021/01/23 12:27:36;;;;;;;23.17;4.22;;;;;;;;;;5131899;28;20031;-75
2021/01/23 12:30:41;;;;;;;26.67;4.28;;;;;;;;;;5132239;28;20046;-74
2021/01/23 12:33:46;;;;;;;16.08;3.28;;;;;;;;;;5131936;28;20044;-74
2021/01/23 12:36:51;;;;;;;19.05;3.10;;;;;;;;;;5132029;28;20039;-75
2021/01/23 12:39:55;;;;;;;17.60;2.75;;;;;;;;;;5131730;28;20048;-74
2021/01/23 12:42:59;;;;;;;18.35;3.33;;;;;;;;;;5131407;28;20035;-74
2021/01/23 12:46:04;;;;;;;13.95;3.78;;;;;;;;;;5131443;28;20507;-74
2021/01/23 12:49:08;;;;;;;9.50;2.72;;;;;;;;;;5132144;28;20367;-74
2021/01/23 12:52:12;;;;;;;7.28;2.50;;;;;;;;;;5131653;28;20491;-74
2021/01/23 12:55:17;;;;;;;7.57;2.15;;;;;;;;;;5132031;28;20356;-74
2021/01/23 12:58:22;;;;;;;8.27;1.92;;;;;;;;;;5131679;28;20044;-75
2021/01/23 13:01:26;;;;;;;8.32;1.83;;;;;;;;;;5131521;28;20035;-75
2021/01/23 13:04:32;;;;;;;8.40;2.40;;;;;;;;;;5131634;28;20035;-75
2021/01/23 13:07:36;;;;;;;11.43;4.18;;;;;;;;;;5135748;27;20046;-76
2021/01/23 13:10:41;;;;;;;11.45;3.30;;;;;;;;;;5135323;27;20058;-76
2021/01/23 13:13:46;;;;;;;19.08;4.30;;;;;;;;;;5135347;27;20043;-76
2021/01/23 13:16:51;;;;;;;14.07;4.38;;;;;;;;;;5135572;27;20043;-76
2021/01/23 13:19:55;;;;;;;8.68;2.20;;;;;;;;;;5135541;27;20528;-75
2021/01/23 13:23:00;;;;;;;11.45;2.88;;;;;;;;;;5135485;27;20047;-75
2021/01/23 13:26:04;;;;;;;15.07;2.80;;;;;;;;;;5135183;27;20051;-75
2021/01/23 13:29:08;;;;;;;12.60;3.28;;;;;;;;;;5135005;27;20044;-75
2021/01/23 13:32:13;;;;;;;15.35;3.60;;;;;;;;;;5122075;27;20043;-77
2021/01/23 13:35:17;;;;;;;12.20;3.28;;;;;;;;;;5134605;27;20035;-76
2021/01/23 13:38:24;;;;;;;16.95;3.58;;;;;;;;;;5134444;27;20038;-75
2021/01/23 13:41:29;;;;;;;16.38;4.82;;;;;;;;;;5134670;27;20042;-76
2021/01/23 13:44:33;;;;;;;17.27;3.78;;;;;;;;;;5134372;27;20744;-78
2021/01/23 13:47:37;;;;;;;15.75;3.10;;;;;;;;;;5134863;27;20046;-76
2021/01/23 13:50:42;;;;;;;18.02;3.67;;;;;;;;;;5133946;27;20039;-79
2021/01/23 13:53:46;;;;;;;26.88;4.32;;;;;;;;;;5134362;27;20364;-71
2021/01/23 13:56:51;;;;;;;18.35;4.05;;;;;;;;;;5134747;27;20046;-71
2021/01/23 13:59:56;;;;;;;20.33;4.30;;;;;;;;;;5134965;27;20046;-76
2021/01/23 14:03:00;;;;;;;16.33;4.35;;;;;;;;;;5134138;27;20051;-79
2021/01/23 14:06:05;;;;;;;21.80;4.57;;;;;;;;;;5134488;27;20051;-79
2021/01/23 14:09:09;;;;;;;18.23;5.68;;;;;;;;;;5134406;27;20392;-76
2021/01/23 14:12:14;;;;;;;21.38;4.90;;;;;;;;;;5134174;27;20380;-77
2021/01/23 14:15:21;;;;;;;23.60;8.95;;;;;;;;;;5134588;27;20031;-77
2021/01/23 14:18:25;;;;;;;25.45;6.18;;;;;;;;;;5133636;27;20043;-79
2021/01/23 14:21:29;;;;;;;30.98;6.57;;;;;;;;;;5121519;27;20047;-73
2021/01/23 14:24:34;;;;;;;28.17;7.57;;;;;;;;;;5134255;27;20039;-73
2021/01/23 14:27:38;;;;;;;25.20;6.28;;;;;;;;;;5134120;27;20050;-74
2021/01/23 14:30:42;;;;;;;23.17;5.45;;;;;;;;;;5134155;27;20038;-71
2021/01/23 14:33:47;;;;;;;22.50;5.30;;;;;;;;;;5134066;27;20057;-75
2021/01/23 14:36:52;;;;;;;27.42;6.78;;;;;;;;;;5133315;27;20489;-75
2021/01/23 14:39:56;;;;;;;22.35;5.50;;;;;;;;;;5133746;27;20038;-74
2021/01/23 14:43:01;;;;;;;15.35;4.95;;;;;;;;;;5133802;27;20035;-75
2021/01/23 14:46:05;;;;;;;23.98;4.15;;;;;;;;;;5133557;27;20043;-75
2021/01/23 14:49:10;;;;;;;22.08;5.10;;;;;;;;;;5133659;27;20042;-74
2021/01/23 14:52:14;;;;;;;19.23;5.30;;;;;;;;;;5120755;27;20521;-75
2021/01/23 14:55:19;;;;;;;31.83;12.15;;;;;;;;;;5133262;27;20204;-74
2021/01/23 14:58:23;;;;;;;24.95;4.70;;;;;;;;;;5133345;27;20054;-74
2021/01/23 15:01:30;;;;;;;17.05;4.13;;;;;;;;;;5133018;27;20050;-74
2021/01/23 15:04:35;;;;;;;15.38;3.58;;;;;;;;;;5132699;27;20035;-74
2021/01/23 15:07:41;;;;;;;24.10;4.90;;;;;;;;;;5133264;27;20046;-74
2021/01/23 15:10:45;;;;;;;18.30;4.10;;;;;;;;;;5132843;27;20050;-73
2021/01/23 15:13:50;;;;;;;20.35;4.50;;;;;;;;;;5120703;27;20055;-74
2021/01/23 15:16:54;;;;;;;18.77;4.00;;;;;;;;;;5132923;27;20031;-74
2021/01/23 15:20:02;;;;;;;18.73;4.10;;;;;;;;;;5133148;27;20039;-74
2021/01/23 15:23:06;;;;;;;18.63;4.00;;;;;;;;;;5132862;27;20032;-74
2021/01/23 15:26:10;;;;;;;16.25;3.95;;;;;;;;;;5132650;27;20058;-74
2021/01/23 15:29:15;;;;;;;20.13;3.92;;;;;;;;;;5131696;27;20038;-74
2021/01/23 15:32:19;;;;;;;15.30;4.47;;;;;;;;;;5132287;27;20038;-71
2021/01/23 15:35:23;;;;;;;15.55;5.45;;;;;;;;;;5132589;27;20035;-71
2021/01/23 15:38:28;;;;;;;18.45;5.22;;;;;;;;;;5132864;27;20047;-71
2021/01/23 15:41:32;;;;;;;18.73;5.50;;;;;;;;;;5132485;27;20035;-71
2021/01/23 15:44:36;;;;;;;20.15;5.95;;;;;;;;;;5132526;27;20047;-72
2021/01/23 15:47:40;;;;;;;20.27;5.80;;;;;;;;;;5132400;27;20050;-74
2021/01/23 15:50:44;;;;;;;28.48;6.35;;;;;;;;;;5132088;27;20035;-74
2021/01/23 15:53:49;;;;;;;31.17;7.63;;;;;;;;;;5132105;27;20039;-74
2021/01/23 15:56:56;;;;;;;22.08;4.05;;;;;;;;;;5132245;27;20364;-75
2021/01/23 16:00:00;;;;;;;13.63;3.45;;;;;;;;;;5131993;27;20103;-75
2021/01/23 16:03:05;;;;;;;20.58;3.97;;;;;;;;;;5132336;27;20031;-74
2021/01/23 16:06:11;;;;;;;21.40;4.30;;;;;;;;;;5132049;27;20059;-74
2021/01/23 16:09:16;;;;;;;19.35;4.00;;;;;;;;;;5131981;27;20028;-74
2021/01/23 16:12:22;;;;;;;22.50;4.32;;;;;;;;;;5131558;27;20043;-74
2021/01/23 16:15:27;;;;;;;13.52;3.67;;;;;;;;;;5131696;27;20666;-73
2021/01/23 16:18:31;;;;;;;20.05;4.28;;;;;;;;;;5119466;28;20031;-74
2021/01/23 16:21:35;;;;;;;11.70;3.42;;;;;;;;;;5131692;28;20474;-74
2021/01/23 16:24:40;;;;;;;14.07;4.03;;;;;;;;;;5132082;28;20391;-74
2021/01/23 16:27:44;;;;;;;16.00;4.28;;;;;;;;;;5131858;28;20031;-74
2021/01/23 16:30:48;;;;;;;17.17;4.05;;;;;;;;;;5131686;28;20039;-73
2021/01/23 16:33:53;;;;;;;14.23;3.72;;;;;;;;;;5131559;28;20390;-73
2021/01/23 16:36:57;;;;;;;16.73;3.70;;;;;;;;;;5131970;28;20113;-74
2021/01/23 16:40:04;;;;;;;14.93;3.80;;;;;;;;;;5132294;27;20105;-73
2021/01/23 16:43:10;;;;;;;19.75;4.15;;;;;;;;;;5135768;27;20042;-73
2021/01/23 16:46:14;;;;;;;16.20;3.47;;;;;;;;;;5135860;27;20051;-73
2021/01/23 16:49:19;;;;;;;12.70;3.38;;;;;;;;;;5136077;27;20039;-74
2021/01/23 16:52:24;;;;;;;20.35;4.40;;;;;;;;;;5135820;27;20422;-74
2021/01/23 16:55:28;;;;;;;15.00;3.33;;;;;;;;;;5135745;27;20046;-73
2021/01/23 16:58:34;;;;;;;15.05;4.75;;;;;;;;;;5135593;27;20039;-73
2021/01/23 17:01:38;;;;;;;14.85;4.70;;;;;;;;;;5135312;27;20048;-73
2021/01/23 17:04:42;;;;;;;19.30;5.75;;;;;;;;;;5135148;27;20043;-73
2021/01/23 17:07:49;;;;;;;26.98;9.48;;;;;;;;;;5135773;27;20047;-73
2021/01/23 17:10:53;;;;;;;23.25;9.38;;;;;;;;;;5135247;27;20055;-73
2021/01/23 17:13:58;;;;;;;27.85;14.38;;;;;;;;;;5135522;27;20039;-73
2021/01/23 17:17:02;;;;;;;28.38;11.57;;;;;;;;;;5135455;27;20050;-74
2021/01/23 17:20:07;;;;;;;28.60;13.20;;;;;;;;;;5135303;27;20045;-73
2021/01/23 17:23:12;;;;;;;38.08;17.88;;;;;;;;;;5122406;27;20066;-73
2021/01/23 17:26:19;;;;;;;32.60;12.10;;;;;;;;;;5134938;27;20050;-73
2021/01/23 17:29:24;;;;;;;25.27;9.60;;;;;;;;;;5135443;27;20042;-73
2021/01/23 17:32:28;;;;;;;44.92;12.95;;;;;;;;;;5134948;27;20058;-73
2021/01/23 17:35:34;;;;;;;34.00;12.43;;;;;;;;;;5134935;27;20042;-73
2021/01/23 17:38:38;;;;;;;44.42;12.05;;;;;;;;;;5134729;27;20038;-73
2021/01/23 17:41:43;;;;;;;29.38;9.80;;;;;;;;;;5134510;27;20540;-73
2021/01/23 17:44:47;;;;;;;39.85;9.55;;;;;;;;;;5134951;27;20035;-74
2021/01/23 17:47:51;;;;;;;36.60;7.75;;;;;;;;;;5134831;27;20035;-73
2021/01/23 17:50:56;;;;;;;26.23;7.53;;;;;;;;;;5134787;27;20532;-73
2021/01/23 17:54:00;;;;;;;44.90;9.48;;;;;;;;;;5134578;27;20046;-73
2021/01/23 17:57:04;;;;;;;44.45;11.23;;;;;;;;;;5134886;27;20033;-74
2021/01/23 18:00:09;;;;;;;39.10;12.35;;;;;;;;;;5134626;27;20034;-74
2021/01/23 18:03:13;;;;;;;45.42;11.75;;;;;;;;;;5134174;27;20391;-73
2021/01/23 18:06:18;;;;;;;33.95;9.20;;;;;;;;;;5133881;27;20058;-73
2021/01/23 18:09:22;;;;;;;49.80;9.77;;;;;;;;;;5134056;27;20494;-74
2021/01/23 18:12:26;;;;;;;30.98;7.20;;;;;;;;;;5135197;27;20055;-74